sensor_id;sensor_type;location;lat;lon;timestamp;temperature;humidity
22456;DHT22;11395;53.204;6.502;2023-08-24T00:00:57;24.70;86.90
22456;DHT22;11395;53.204;6.502;2023-08-24T00:05:50;24.70;82.70
22456;DHT22;11395;53.204;6.502;2023-08-24T00:08:17;24.70;83.20
22456;DHT22;11395;53.204;6.502;2023-08-24T00:10:44;24.70;83.10
22456;DHT22;11395;53.204;6.502;2023-08-24T00:13:14;24.60;83.00
22456;DHT22;11395;53.204;6.502;2023-08-24T00:15:40;24.60;83.20
22456;DHT22;11395;53.204;6.502;2023-08-24T00:18:07;24.60;83.10
22456;DHT22;11395;53.204;6.502;2023-08-24T00:20:33;24.60;83.20
22456;DHT22;11395;53.204;6.502;2023-08-24T00:23:00;24.70;83.20
22456;DHT22;11395;53.204;6.502;2023-08-24T00:25:26;24.60;83.00
22456;DHT22;11395;53.204;6.502;2023-08-24T00:27:53;24.60;83.20
22456;DHT22;11395;53.204;6.502;2023-08-24T00:30:19;24.60;83.20
22456;DHT22;11395;53.204;6.502;2023-08-24T00:32:46;24.60;83.20
22456;DHT22;11395;53.204;6.502;2023-08-24T00:35:12;24.60;83.20
22456;DHT22;11395;53.204;6.502;2023-08-24T00:37:39;24.60;83.20
22456;DHT22;11395;53.204;6.502;2023-08-24T00:40:06;24.60;83.20
22456;DHT22;11395;53.204;6.502;2023-08-24T00:42:40;24.60;83.20
22456;DHT22;11395;53.204;6.502;2023-08-24T00:45:08;24.60;83.40
22456;DHT22;11395;53.204;6.502;2023-08-24T00:47:40;24.60;83.10
22456;DHT22;11395;53.204;6.502;2023-08-24T00:50:07;24.50;83.10
22456;DHT22;11395;53.204;6.502;2023-08-24T00:52:37;24.50;83.10
22456;DHT22;11395;53.204;6.502;2023-08-24T00:55:05;24.50;83.10
22456;DHT22;11395;53.204;6.502;2023-08-24T00:57:32;24.50;83.10
22456;DHT22;11395;53.204;6.502;2023-08-24T01:00:03;24.50;83.20
22456;DHT22;11395;53.204;6.502;2023-08-24T01:02:32;24.50;83.20
22456;DHT22;11395;53.204;6.502;2023-08-24T01:04:59;24.50;83.10
22456;DHT22;11395;53.204;6.502;2023-08-24T01:07:25;24.50;83.20
22456;DHT22;11395;53.204;6.502;2023-08-24T01:09:52;24.50;83.20
22456;DHT22;11395;53.204;6.502;2023-08-24T01:12:39;24.50;83.10
22456;DHT22;11395;53.204;6.502;2023-08-24T01:15:23;24.50;83.30
22456;DHT22;11395;53.204;6.502;2023-08-24T01:17:52;24.50;83.10
22456;DHT22;11395;53.204;6.502;2023-08-24T01:20:21;24.40;83.10
22456;DHT22;11395;53.204;6.502;2023-08-24T01:23:04;24.40;83.10
22456;DHT22;11395;53.204;6.502;2023-08-24T01:25:45;24.40;83.30
22456;DHT22;11395;53.204;6.502;2023-08-24T01:28:13;24.40;83.00
22456;DHT22;11395;53.204;6.502;2023-08-24T01:30:40;24.40;83.10
22456;DHT22;11395;53.204;6.502;2023-08-24T01:33:07;24.40;83.20
22456;DHT22;11395;53.204;6.502;2023-08-24T01:35:38;24.40;83.20
22456;DHT22;11395;53.204;6.502;2023-08-24T01:38:04;24.40;83.20
22456;DHT22;11395;53.204;6.502;2023-08-24T01:43:37;24.40;83.10
22456;DHT22;11395;53.204;6.502;2023-08-24T01:46:05;24.40;83.90
22456;DHT22;11395;53.204;6.502;2023-08-24T01:48:33;24.40;83.20
22456;DHT22;11395;53.204;6.502;2023-08-24T01:51:01;24.30;83.10
22456;DHT22;11395;53.204;6.502;2023-08-24T01:53:31;24.30;83.00
22456;DHT22;11395;53.204;6.502;2023-08-24T01:55:57;24.30;83.10
22456;DHT22;11395;53.204;6.502;2023-08-24T01:58:23;24.30;83.20
22456;DHT22;11395;53.204;6.502;2023-08-24T02:00:50;24.30;83.10
22456;DHT22;11395;53.204;6.502;2023-08-24T02:03:16;24.30;83.20
22456;DHT22;11395;53.204;6.502;2023-08-24T02:05:42;24.30;83.20
22456;DHT22;11395;53.204;6.502;2023-08-24T02:08:08;24.30;83.10
22456;DHT22;11395;53.204;6.502;2023-08-24T02:10:34;24.30;83.00
22456;DHT22;11395;53.204;6.502;2023-08-24T02:13:00;24.30;83.10
22456;DHT22;11395;53.204;6.502;2023-08-24T02:15:27;24.30;83.00
22456;DHT22;11395;53.204;6.502;2023-08-24T02:17:53;24.30;83.20
22456;DHT22;11395;53.204;6.502;2023-08-24T02:20:19;24.30;83.10
22456;DHT22;11395;53.204;6.502;2023-08-24T02:22:46;24.30;83.00
22456;DHT22;11395;53.204;6.502;2023-08-24T02:25:12;24.20;83.00
22456;DHT22;11395;53.204;6.502;2023-08-24T02:27:38;24.20;83.10
22456;DHT22;11395;53.204;6.502;2023-08-24T02:30:05;24.20;83.10
22456;DHT22;11395;53.204;6.502;2023-08-24T02:32:31;24.20;83.00
22456;DHT22;11395;53.204;6.502;2023-08-24T02:34:57;24.20;83.10
22456;DHT22;11395;53.204;6.502;2023-08-24T02:37:24;24.20;83.10
22456;DHT22;11395;53.204;6.502;2023-08-24T02:39:50;24.20;83.10
22456;DHT22;11395;53.204;6.502;2023-08-24T02:42:16;24.20;83.00
22456;DHT22;11395;53.204;6.502;2023-08-24T02:44:43;24.20;83.00
22456;DHT22;11395;53.204;6.502;2023-08-24T02:47:09;24.20;83.10
22456;DHT22;11395;53.204;6.502;2023-08-24T02:49:35;24.20;83.10
22456;DHT22;11395;53.204;6.502;2023-08-24T02:52:03;24.20;83.00
22456;DHT22;11395;53.204;6.502;2023-08-24T02:54:29;24.20;83.10
22456;DHT22;11395;53.204;6.502;2023-08-24T02:56:55;24.10;83.00
22456;DHT22;11395;53.204;6.502;2023-08-24T02:59:21;24.10;83.10
22456;DHT22;11395;53.204;6.502;2023-08-24T03:01:48;24.10;83.10
22456;DHT22;11395;53.204;6.502;2023-08-24T03:04:14;24.10;83.20
22456;DHT22;11395;53.204;6.502;2023-08-24T03:06:43;24.10;83.10
22456;DHT22;11395;53.204;6.502;2023-08-24T03:09:09;24.10;83.80
22456;DHT22;11395;53.204;6.502;2023-08-24T03:11:35;24.10;83.00
22456;DHT22;11395;53.204;6.502;2023-08-24T03:14:01;24.10;83.20
22456;DHT22;11395;53.204;6.502;2023-08-24T03:16:28;24.10;83.10
22456;DHT22;11395;53.204;6.502;2023-08-24T03:18:54;24.10;83.20
22456;DHT22;11395;53.204;6.502;2023-08-24T03:21:20;24.10;83.20
22456;DHT22;11395;53.204;6.502;2023-08-24T03:23:46;24.10;83.20
22456;DHT22;11395;53.204;6.502;2023-08-24T03:26:12;24.10;83.20
22456;DHT22;11395;53.204;6.502;2023-08-24T03:28:39;24.10;83.20
22456;DHT22;11395;53.204;6.502;2023-08-24T03:31:06;24.10;83.20
22456;DHT22;11395;53.204;6.502;2023-08-24T03:33:33;24.10;83.40
22456;DHT22;11395;53.204;6.502;2023-08-24T03:36:01;24.10;83.20
22456;DHT22;11395;53.204;6.502;2023-08-24T03:38:29;24.10;83.20
22456;DHT22;11395;53.204;6.502;2023-08-24T03:41:01;24.10;83.20
22456;DHT22;11395;53.204;6.502;2023-08-24T03:43:32;24.00;83.30
22456;DHT22;11395;53.204;6.502;2023-08-24T03:46:03;24.10;83.30
22456;DHT22;11395;53.204;6.502;2023-08-24T03:48:30;24.00;83.10
22456;DHT22;11395;53.204;6.502;2023-08-24T03:50:57;24.10;83.30
22456;DHT22;11395;53.204;6.502;2023-08-24T03:53:24;24.00;83.10
22456;DHT22;11395;53.204;6.502;2023-08-24T03:55:54;24.10;83.30
22456;DHT22;11395;53.204;6.502;2023-08-24T03:58:21;24.10;84.30
22456;DHT22;11395;53.204;6.502;2023-08-24T04:00:48;24.00;83.10
22456;DHT22;11395;53.204;6.502;2023-08-24T04:03:14;24.00;83.20
22456;DHT22;11395;53.204;6.502;2023-08-24T04:05:40;24.00;83.10
22456;DHT22;11395;53.204;6.502;2023-08-24T04:08:06;24.00;83.20
22456;DHT22;11395;53.204;6.502;2023-08-24T04:10:33;24.00;83.20
22456;DHT22;11395;53.204;6.502;2023-08-24T04:12:59;24.00;83.30
22456;DHT22;11395;53.204;6.502;2023-08-24T04:15:25;24.00;83.30
22456;DHT22;11395;53.204;6.502;2023-08-24T04:17:52;23.90;83.10
22456;DHT22;11395;53.204;6.502;2023-08-24T04:20:18;24.00;83.20
22456;DHT22;11395;53.204;6.502;2023-08-24T04:22:44;23.90;83.20
22456;DHT22;11395;53.204;6.502;2023-08-24T04:25:10;23.90;83.10
22456;DHT22;11395;53.204;6.502;2023-08-24T04:27:37;23.90;83.20
22456;DHT22;11395;53.204;6.502;2023-08-24T04:30:03;23.90;83.30
22456;DHT22;11395;53.204;6.502;2023-08-24T04:32:31;23.90;83.20
22456;DHT22;11395;53.204;6.502;2023-08-24T04:34:58;23.90;83.50
22456;DHT22;11395;53.204;6.502;2023-08-24T04:37:24;23.90;83.20
22456;DHT22;11395;53.204;6.502;2023-08-24T04:39:50;23.90;83.20
22456;DHT22;11395;53.204;6.502;2023-08-24T04:42:16;23.90;83.20
22456;DHT22;11395;53.204;6.502;2023-08-24T04:44:42;23.90;83.20
22456;DHT22;11395;53.204;6.502;2023-08-24T04:47:08;23.90;83.10
22456;DHT22;11395;53.204;6.502;2023-08-24T04:49:36;23.90;83.20
22456;DHT22;11395;53.204;6.502;2023-08-24T04:52:03;23.90;83.40
22456;DHT22;11395;53.204;6.502;2023-08-24T04:54:29;23.90;83.30
22456;DHT22;11395;53.204;6.502;2023-08-24T04:56:55;23.90;83.30
22456;DHT22;11395;53.204;6.502;2023-08-24T04:59:21;23.90;83.30
22456;DHT22;11395;53.204;6.502;2023-08-24T05:01:47;23.90;83.20
22456;DHT22;11395;53.204;6.502;2023-08-24T05:04:13;23.90;83.20
22456;DHT22;11395;53.204;6.502;2023-08-24T05:06:40;23.90;83.20
22456;DHT22;11395;53.204;6.502;2023-08-24T05:09:06;23.90;83.20
22456;DHT22;11395;53.204;6.502;2023-08-24T05:11:32;23.90;83.20
22456;DHT22;11395;53.204;6.502;2023-08-24T05:13:58;23.90;83.20
22456;DHT22;11395;53.204;6.502;2023-08-24T05:16:24;23.90;83.10
22456;DHT22;11395;53.204;6.502;2023-08-24T05:18:51;23.90;83.10
22456;DHT22;11395;53.204;6.502;2023-08-24T05:21:17;23.90;83.10
22456;DHT22;11395;53.204;6.502;2023-08-24T05:23:43;23.90;83.00
22456;DHT22;11395;53.204;6.502;2023-08-24T05:26:09;23.90;83.10
22456;DHT22;11395;53.204;6.502;2023-08-24T05:28:35;23.90;83.00
22456;DHT22;11395;53.204;6.502;2023-08-24T05:31:02;23.90;83.00
22456;DHT22;11395;53.204;6.502;2023-08-24T05:33:28;23.90;82.90
22456;DHT22;11395;53.204;6.502;2023-08-24T05:35:56;23.90;82.90
22456;DHT22;11395;53.204;6.502;2023-08-24T05:38:23;23.90;82.70
22456;DHT22;11395;53.204;6.502;2023-08-24T05:40:50;24.00;82.80
22456;DHT22;11395;53.204;6.502;2023-08-24T05:43:16;24.00;82.70
22456;DHT22;11395;53.204;6.502;2023-08-24T05:45:42;24.00;82.70
22456;DHT22;11395;53.204;6.502;2023-08-24T05:48:11;24.00;82.30
22456;DHT22;11395;53.204;6.502;2023-08-24T05:50:42;24.00;82.50
22456;DHT22;11395;53.204;6.502;2023-08-24T05:53:08;24.00;82.30
22456;DHT22;11395;53.204;6.502;2023-08-24T05:55:34;24.10;82.30
22456;DHT22;11395;53.204;6.502;2023-08-24T05:58:00;24.10;82.20
22456;DHT22;11395;53.204;6.502;2023-08-24T06:00:26;24.20;81.90
22456;DHT22;11395;53.204;6.502;2023-08-24T06:02:52;24.30;81.90
22456;DHT22;11395;53.204;6.502;2023-08-24T06:05:18;24.30;81.70
22456;DHT22;11395;53.204;6.502;2023-08-24T06:07:45;24.40;81.50
22456;DHT22;11395;53.204;6.502;2023-08-24T06:10:12;24.40;81.40
22456;DHT22;11395;53.204;6.502;2023-08-24T06:12:38;24.50;81.20
22456;DHT22;11395;53.204;6.502;2023-08-24T06:15:05;24.50;81.00
22456;DHT22;11395;53.204;6.502;2023-08-24T06:17:33;24.60;81.00
22456;DHT22;11395;53.204;6.502;2023-08-24T06:20:04;24.60;81.30
22456;DHT22;11395;53.204;6.502;2023-08-24T06:22:31;24.70;81.80
22456;DHT22;11395;53.204;6.502;2023-08-24T06:24:57;24.70;81.10
22456;DHT22;11395;53.204;6.502;2023-08-24T06:27:26;24.80;80.60
22456;DHT22;11395;53.204;6.502;2023-08-24T06:29:52;24.90;80.80
22456;DHT22;11395;53.204;6.502;2023-08-24T06:32:19;24.90;80.50
22456;DHT22;11395;53.204;6.502;2023-08-24T06:34:45;25.00;80.30
22456;DHT22;11395;53.204;6.502;2023-08-24T06:37:11;25.00;80.10
22456;DHT22;11395;53.204;6.502;2023-08-24T06:39:37;25.00;79.80
22456;DHT22;11395;53.204;6.502;2023-08-24T06:42:04;25.10;79.80
22456;DHT22;11395;53.204;6.502;2023-08-24T06:44:31;25.10;79.80
22456;DHT22;11395;53.204;6.502;2023-08-24T06:46:57;25.00;79.60
22456;DHT22;11395;53.204;6.502;2023-08-24T06:49:24;25.10;79.70
22456;DHT22;11395;53.204;6.502;2023-08-24T06:51:50;25.10;79.60
22456;DHT22;11395;53.204;6.502;2023-08-24T06:54:16;25.00;79.50
22456;DHT22;11395;53.204;6.502;2023-08-24T06:56:42;25.00;79.50
22456;DHT22;11395;53.204;6.502;2023-08-24T06:59:09;25.00;79.60
22456;DHT22;11395;53.204;6.502;2023-08-24T07:01:37;25.00;79.70
22456;DHT22;11395;53.204;6.502;2023-08-24T07:04:03;24.90;79.70
22456;DHT22;11395;53.204;6.502;2023-08-24T07:06:29;24.90;80.00
22456;DHT22;11395;53.204;6.502;2023-08-24T07:08:55;24.90;79.80
22456;DHT22;11395;53.204;6.502;2023-08-24T07:11:21;24.90;80.20
22456;DHT22;11395;53.204;6.502;2023-08-24T07:13:49;24.90;80.30
22456;DHT22;11395;53.204;6.502;2023-08-24T07:16:16;24.90;80.30
22456;DHT22;11395;53.204;6.502;2023-08-24T07:18:42;24.90;80.40
22456;DHT22;11395;53.204;6.502;2023-08-24T07:21:08;24.90;80.20
22456;DHT22;11395;53.204;6.502;2023-08-24T07:23:34;24.90;80.50
22456;DHT22;11395;53.204;6.502;2023-08-24T07:26:00;24.90;80.70
22456;DHT22;11395;53.204;6.502;2023-08-24T07:28:27;24.80;81.10
22456;DHT22;11395;53.204;6.502;2023-08-24T07:30:53;24.80;81.20
22456;DHT22;11395;53.204;6.502;2023-08-24T07:33:22;24.80;81.00
22456;DHT22;11395;53.204;6.502;2023-08-24T07:35:48;24.80;81.50
22456;DHT22;11395;53.204;6.502;2023-08-24T07:38:14;24.80;81.90
22456;DHT22;11395;53.204;6.502;2023-08-24T07:40:40;24.80;82.20
22456;DHT22;11395;53.204;6.502;2023-08-24T07:43:06;24.80;82.60
22456;DHT22;11395;53.204;6.502;2023-08-24T07:45:33;24.90;84.00
22456;DHT22;11395;53.204;6.502;2023-08-24T07:47:59;25.00;87.80
22456;DHT22;11395;53.204;6.502;2023-08-24T07:50:26;25.00;88.40
22456;DHT22;11395;53.204;6.502;2023-08-24T07:52:52;25.10;87.80
22456;DHT22;11395;53.204;6.502;2023-08-24T07:55:18;25.10;91.10
22456;DHT22;11395;53.204;6.502;2023-08-24T07:57:44;25.20;90.20
22456;DHT22;11395;53.204;6.502;2023-08-24T08:00:11;25.30;85.50
22456;DHT22;11395;53.204;6.502;2023-08-24T08:02:40;25.30;84.00
22456;DHT22;11395;53.204;6.502;2023-08-24T08:05:06;25.40;85.00
22456;DHT22;11395;53.204;6.502;2023-08-24T08:07:34;25.50;89.50
22456;DHT22;11395;53.204;6.502;2023-08-24T08:10:00;25.50;89.20
22456;DHT22;11395;53.204;6.502;2023-08-24T08:12:26;25.50;85.90
22456;DHT22;11395;53.204;6.502;2023-08-24T08:14:53;25.60;90.10
22456;DHT22;11395;53.204;6.502;2023-08-24T08:17:19;25.50;86.50
22456;DHT22;11395;53.204;6.502;2023-08-24T08:19:45;25.60;88.70
22456;DHT22;11395;53.204;6.502;2023-08-24T08:22:12;25.60;90.00
22456;DHT22;11395;53.204;6.502;2023-08-24T08:24:38;25.70;88.90
22456;DHT22;11395;53.204;6.502;2023-08-24T08:27:04;25.60;85.70
22456;DHT22;11395;53.204;6.502;2023-08-24T08:29:30;25.70;90.50
22456;DHT22;11395;53.204;6.502;2023-08-24T08:31:57;26.20;92.30
22456;DHT22;11395;53.204;6.502;2023-08-24T08:34:23;25.70;88.40
22456;DHT22;11395;53.204;6.502;2023-08-24T08:36:49;25.70;88.70
22456;DHT22;11395;53.204;6.502;2023-08-24T08:39:15;25.70;86.30
22456;DHT22;11395;53.204;6.502;2023-08-24T08:44:13;25.70;82.20
22456;DHT22;11395;53.204;6.502;2023-08-24T08:46:40;25.90;82.60
22456;DHT22;11395;53.204;6.502;2023-08-24T08:49:07;25.70;78.00
22456;DHT22;11395;53.204;6.502;2023-08-24T08:51:36;25.70;77.80
22456;DHT22;11395;53.204;6.502;2023-08-24T08:54:04;25.80;78.00
22456;DHT22;11395;53.204;6.502;2023-08-24T08:56:34;25.70;77.70
22456;DHT22;11395;53.204;6.502;2023-08-24T08:59:02;25.80;78.40
22456;DHT22;11395;53.204;6.502;2023-08-24T09:01:32;25.80;77.90
22456;DHT22;11395;53.204;6.502;2023-08-24T09:03:58;25.80;78.60
22456;DHT22;11395;53.204;6.502;2023-08-24T09:06:24;25.70;78.40
22456;DHT22;11395;53.204;6.502;2023-08-24T09:08:52;25.70;78.20
22456;DHT22;11395;53.204;6.502;2023-08-24T09:11:19;25.70;78.50
22456;DHT22;11395;53.204;6.502;2023-08-24T09:13:45;25.60;78.90
22456;DHT22;11395;53.204;6.502;2023-08-24T09:16:12;25.60;78.80
22456;DHT22;11395;53.204;6.502;2023-08-24T09:18:46;25.60;78.90
22456;DHT22;11395;53.204;6.502;2023-08-24T09:21:15;25.50;78.00
22456;DHT22;11395;53.204;6.502;2023-08-24T09:23:45;25.50;78.20
22456;DHT22;11395;53.204;6.502;2023-08-24T09:26:34;25.50;78.30
22456;DHT22;11395;53.204;6.502;2023-08-24T09:29:10;25.50;78.20
22456;DHT22;11395;53.204;6.502;2023-08-24T09:31:38;25.50;78.30
22456;DHT22;11395;53.204;6.502;2023-08-24T09:34:05;25.50;78.30
22456;DHT22;11395;53.204;6.502;2023-08-24T09:36:33;25.50;78.40
22456;DHT22;11395;53.204;6.502;2023-08-24T09:39:00;25.50;78.50
22456;DHT22;11395;53.204;6.502;2023-08-24T09:41:43;25.50;78.60
22456;DHT22;11395;53.204;6.502;2023-08-24T09:44:09;25.50;78.60
22456;DHT22;11395;53.204;6.502;2023-08-24T09:46:36;25.50;78.70
22456;DHT22;11395;53.204;6.502;2023-08-24T09:49:05;25.50;78.70
22456;DHT22;11395;53.204;6.502;2023-08-24T09:51:33;25.50;78.70
22456;DHT22;11395;53.204;6.502;2023-08-24T09:54:04;25.50;78.70
22456;DHT22;11395;53.204;6.502;2023-08-24T09:56:35;25.50;78.60
22456;DHT22;11395;53.204;6.502;2023-08-24T09:59:10;25.50;78.60
22456;DHT22;11395;53.204;6.502;2023-08-24T10:01:37;25.50;78.80
22456;DHT22;11395;53.204;6.502;2023-08-24T10:04:05;25.50;78.70
22456;DHT22;11395;53.204;6.502;2023-08-24T10:06:32;25.50;78.90
22456;DHT22;11395;53.204;6.502;2023-08-24T10:09:02;25.50;78.90
22456;DHT22;11395;53.204;6.502;2023-08-24T10:11:31;25.50;79.00
22456;DHT22;11395;53.204;6.502;2023-08-24T10:14:08;25.40;78.90
22456;DHT22;11395;53.204;6.502;2023-08-24T10:16:36;25.40;79.10
22456;DHT22;11395;53.204;6.502;2023-08-24T10:19:03;25.40;79.00
22456;DHT22;11395;53.204;6.502;2023-08-24T10:21:30;25.40;79.10
22456;DHT22;11395;53.204;6.502;2023-08-24T10:23:57;25.50;79.30
22456;DHT22;11395;53.204;6.502;2023-08-24T10:26:24;25.40;79.00
22456;DHT22;11395;53.204;6.502;2023-08-24T10:28:50;25.30;78.80
22456;DHT22;11395;53.204;6.502;2023-08-24T10:31:17;25.30;78.80
22456;DHT22;11395;53.204;6.502;2023-08-24T10:33:45;25.30;78.90
22456;DHT22;11395;53.204;6.502;2023-08-24T10:36:15;25.30;78.90
22456;DHT22;11395;53.204;6.502;2023-08-24T10:38:42;25.40;78.90
22456;DHT22;11395;53.204;6.502;2023-08-24T10:41:09;25.40;78.80
22456;DHT22;11395;53.204;6.502;2023-08-24T10:43:49;25.30;78.70
22456;DHT22;11395;53.204;6.502;2023-08-24T10:46:16;25.30;78.90
22456;DHT22;11395;53.204;6.502;2023-08-24T10:51:23;25.30;78.80
22456;DHT22;11395;53.204;6.502;2023-08-24T10:53:59;25.30;78.90
22456;DHT22;11395;53.204;6.502;2023-08-24T10:56:39;25.30;78.80
22456;DHT22;11395;53.204;6.502;2023-08-24T10:59:16;25.30;79.10
22456;DHT22;11395;53.204;6.502;2023-08-24T11:01:54;25.30;79.00
22456;DHT22;11395;53.204;6.502;2023-08-24T11:04:20;25.30;79.00
22456;DHT22;11395;53.204;6.502;2023-08-24T11:06:57;25.30;79.00
22456;DHT22;11395;53.204;6.502;2023-08-24T11:09:25;25.30;79.10
22456;DHT22;11395;53.204;6.502;2023-08-24T11:12:03;25.30;79.00
22456;DHT22;11395;53.204;6.502;2023-08-24T11:14:30;25.30;79.20
22456;DHT22;11395;53.204;6.502;2023-08-24T11:17:17;25.30;79.00
22456;DHT22;11395;53.204;6.502;2023-08-24T11:19:52;25.30;79.20
22456;DHT22;11395;53.204;6.502;2023-08-24T11:22:18;25.30;79.10
22456;DHT22;11395;53.204;6.502;2023-08-24T11:24:45;25.30;79.10
22456;DHT22;11395;53.204;6.502;2023-08-24T11:27:11;25.30;79.20
22456;DHT22;11395;53.204;6.502;2023-08-24T11:29:37;25.30;79.20
22456;DHT22;11395;53.204;6.502;2023-08-24T11:32:04;25.30;79.10
22456;DHT22;11395;53.204;6.502;2023-08-24T11:34:30;25.30;79.20
22456;DHT22;11395;53.204;6.502;2023-08-24T11:36:57;25.30;79.10
22456;DHT22;11395;53.204;6.502;2023-08-24T11:39:24;25.30;79.20
22456;DHT22;11395;53.204;6.502;2023-08-24T11:44:24;25.30;79.20
22456;DHT22;11395;53.204;6.502;2023-08-24T11:46:51;25.30;79.10
22456;DHT22;11395;53.204;6.502;2023-08-24T11:49:17;25.30;79.00
22456;DHT22;11395;53.204;6.502;2023-08-24T11:51:43;25.40;79.80
22456;DHT22;11395;53.204;6.502;2023-08-24T11:54:10;25.40;79.00
22456;DHT22;11395;53.204;6.502;2023-08-24T11:56:42;25.40;78.90
22456;DHT22;11395;53.204;6.502;2023-08-24T11:59:16;25.40;78.90
22456;DHT22;11395;53.204;6.502;2023-08-24T12:01:43;25.40;78.90
22456;DHT22;11395;53.204;6.502;2023-08-24T12:04:09;25.40;78.90
22456;DHT22;11395;53.204;6.502;2023-08-24T12:06:35;25.40;78.90
22456;DHT22;11395;53.204;6.502;2023-08-24T12:09:05;25.40;78.90
22456;DHT22;11395;53.204;6.502;2023-08-24T12:11:35;25.50;79.00
22456;DHT22;11395;53.204;6.502;2023-08-24T12:14:02;25.50;78.90
22456;DHT22;11395;53.204;6.502;2023-08-24T12:16:32;25.50;78.90
22456;DHT22;11395;53.204;6.502;2023-08-24T12:18:59;25.50;78.80
22456;DHT22;11395;53.204;6.502;2023-08-24T12:21:26;25.50;79.70
22456;DHT22;11395;53.204;6.502;2023-08-24T12:26:23;25.40;79.00
22456;DHT22;11395;53.204;6.502;2023-08-24T12:28:52;25.40;79.10
22456;DHT22;11395;53.204;6.502;2023-08-24T12:31:19;25.40;79.80
22456;DHT22;11395;53.204;6.502;2023-08-24T12:33:46;25.70;79.40
22456;DHT22;11395;53.204;6.502;2023-08-24T12:36:23;25.40;79.20
22456;DHT22;11395;53.204;6.502;2023-08-24T12:38:49;25.40;79.30
22456;DHT22;11395;53.204;6.502;2023-08-24T12:41:15;25.40;79.40
22456;DHT22;11395;53.204;6.502;2023-08-24T12:43:41;25.40;79.40
22456;DHT22;11395;53.204;6.502;2023-08-24T12:46:07;25.40;79.70
22456;DHT22;11395;53.204;6.502;2023-08-24T12:48:33;25.40;79.60
22456;DHT22;11395;53.204;6.502;2023-08-24T12:51:00;25.40;79.60
22456;DHT22;11395;53.204;6.502;2023-08-24T12:53:26;25.40;79.70
22456;DHT22;11395;53.204;6.502;2023-08-24T12:55:52;25.40;79.70
22456;DHT22;11395;53.204;6.502;2023-08-24T12:58:18;25.40;79.70
22456;DHT22;11395;53.204;6.502;2023-08-24T13:00:45;25.40;79.80
22456;DHT22;11395;53.204;6.502;2023-08-24T13:03:12;25.40;79.80
22456;DHT22;11395;53.204;6.502;2023-08-24T13:05:39;25.40;79.90
22456;DHT22;11395;53.204;6.502;2023-08-24T13:08:05;25.40;80.00
22456;DHT22;11395;53.204;6.502;2023-08-24T13:10:31;25.40;80.10
22456;DHT22;11395;53.204;6.502;2023-08-24T13:12:57;25.40;80.00
22456;DHT22;11395;53.204;6.502;2023-08-24T13:15:24;25.40;80.00
22456;DHT22;11395;53.204;6.502;2023-08-24T13:17:50;25.40;80.00
22456;DHT22;11395;53.204;6.502;2023-08-24T13:20:16;25.40;80.10
22456;DHT22;11395;53.204;6.502;2023-08-24T13:22:42;25.40;80.20
22456;DHT22;11395;53.204;6.502;2023-08-24T13:25:09;25.40;80.00
22456;DHT22;11395;53.204;6.502;2023-08-24T13:27:35;25.40;80.00
22456;DHT22;11395;53.204;6.502;2023-08-24T13:30:02;25.40;80.00
22456;DHT22;11395;53.204;6.502;2023-08-24T13:32:28;25.40;80.10
22456;DHT22;11395;53.204;6.502;2023-08-24T13:34:54;25.40;80.10
22456;DHT22;11395;53.204;6.502;2023-08-24T13:37:22;25.40;79.90
22456;DHT22;11395;53.204;6.502;2023-08-24T13:39:49;25.40;80.00
22456;DHT22;11395;53.204;6.502;2023-08-24T13:42:16;25.50;79.90
22456;DHT22;11395;53.204;6.502;2023-08-24T13:44:42;25.50;80.00
22456;DHT22;11395;53.204;6.502;2023-08-24T13:47:09;25.50;79.90
22456;DHT22;11395;53.204;6.502;2023-08-24T13:49:35;25.50;80.00
22456;DHT22;11395;53.204;6.502;2023-08-24T13:52:01;25.50;80.10
22456;DHT22;11395;53.204;6.502;2023-08-24T13:54:27;25.50;79.80
22456;DHT22;11395;53.204;6.502;2023-08-24T13:56:53;25.50;79.80
22456;DHT22;11395;53.204;6.502;2023-08-24T13:59:20;25.50;79.90
22456;DHT22;11395;53.204;6.502;2023-08-24T14:01:47;25.50;79.80
22456;DHT22;11395;53.204;6.502;2023-08-24T14:04:14;25.50;79.80
22456;DHT22;11395;53.204;6.502;2023-08-24T14:06:40;25.50;80.00
22456;DHT22;11395;53.204;6.502;2023-08-24T14:09:06;25.60;80.10
22456;DHT22;11395;53.204;6.502;2023-08-24T14:11:32;25.60;80.10
22456;DHT22;11395;53.204;6.502;2023-08-24T14:13:59;25.60;79.80
22456;DHT22;11395;53.204;6.502;2023-08-24T14:16:26;25.60;79.80
22456;DHT22;11395;53.204;6.502;2023-08-24T14:18:52;25.70;80.00
22456;DHT22;11395;53.204;6.502;2023-08-24T14:21:19;25.60;80.00
22456;DHT22;11395;53.204;6.502;2023-08-24T14:23:46;25.60;79.80
22456;DHT22;11395;53.204;6.502;2023-08-24T14:26:13;25.60;79.90
22456;DHT22;11395;53.204;6.502;2023-08-24T14:28:53;25.60;80.00
22456;DHT22;11395;53.204;6.502;2023-08-24T14:31:21;25.50;80.00
22456;DHT22;11395;53.204;6.502;2023-08-24T14:33:47;25.50;80.00
22456;DHT22;11395;53.204;6.502;2023-08-24T14:36:14;25.50;80.20
22456;DHT22;11395;53.204;6.502;2023-08-24T14:38:40;25.50;80.40
22456;DHT22;11395;53.204;6.502;2023-08-24T14:41:10;25.50;80.20
22456;DHT22;11395;53.204;6.502;2023-08-24T14:43:37;25.50;80.20
22456;DHT22;11395;53.204;6.502;2023-08-24T14:46:04;25.40;80.30
22456;DHT22;11395;53.204;6.502;2023-08-24T14:48:30;25.40;80.40
22456;DHT22;11395;53.204;6.502;2023-08-24T14:50:56;25.40;80.50
22456;DHT22;11395;53.204;6.502;2023-08-24T14:53:23;25.40;80.50
22456;DHT22;11395;53.204;6.502;2023-08-24T14:55:50;25.40;80.40
22456;DHT22;11395;53.204;6.502;2023-08-24T14:58:16;25.40;80.50
22456;DHT22;11395;53.204;6.502;2023-08-24T15:00:43;25.40;80.60
22456;DHT22;11395;53.204;6.502;2023-08-24T15:03:12;25.40;80.70
22456;DHT22;11395;53.204;6.502;2023-08-24T15:05:42;25.40;80.60
22456;DHT22;11395;53.204;6.502;2023-08-24T15:08:09;25.40;80.90
22456;DHT22;11395;53.204;6.502;2023-08-24T15:10:35;25.40;81.80
22456;DHT22;11395;53.204;6.502;2023-08-24T15:13:01;25.40;80.80
22456;DHT22;11395;53.204;6.502;2023-08-24T15:15:28;25.40;80.70
22456;DHT22;11395;53.204;6.502;2023-08-24T15:17:54;25.40;80.80
22456;DHT22;11395;53.204;6.502;2023-08-24T15:20:20;25.40;80.80
22456;DHT22;11395;53.204;6.502;2023-08-24T15:22:47;25.40;81.10
22456;DHT22;11395;53.204;6.502;2023-08-24T15:25:13;25.40;81.10
22456;DHT22;11395;53.204;6.502;2023-08-24T15:27:40;25.40;81.40
22456;DHT22;11395;53.204;6.502;2023-08-24T15:30:06;25.40;81.10
22456;DHT22;11395;53.204;6.502;2023-08-24T15:32:32;25.40;80.90
22456;DHT22;11395;53.204;6.502;2023-08-24T15:34:59;25.50;80.80
22456;DHT22;11395;53.204;6.502;2023-08-24T15:37:25;25.50;80.80
22456;DHT22;11395;53.204;6.502;2023-08-24T15:39:51;25.50;80.90
22456;DHT22;11395;53.204;6.502;2023-08-24T15:42:17;25.50;80.60
22456;DHT22;11395;53.204;6.502;2023-08-24T15:44:44;25.50;80.80
22456;DHT22;11395;53.204;6.502;2023-08-24T15:47:10;25.50;81.20